البصرة, العراق

09:13 PM AST on ابریل 28, 2015 (GMT +0300)
Basrah International | | Change Station
CLOSE
Current Station
Airport
Location: Basrah,
Elevation: 7 ft
Nearby Weather Stations

Elev 7 ft 30.52 °N, 47.78 °E | Updated 13 minutes ago

Clear
صافية
88 °F
Feels Like 88 °F
N
7
ريح متغير ريح from NW

هذا اليوم
High -- | Low -- °F
--% Chance of Precip.
Yesterday
High -- | Low -- °F
Precip. -- في
5:08 AM 6:24 PM
الأحدب الأول, 75% visible
الضغط 29.89 في
وضوح الرؤية -9999.0 أميال
سحابات
نقطة الندى 37 °F
الرطوبة 17%
Rainfall 0.00 في
عمق الثلج Not available.
الأشعة فوق البنفسجية Not available.
Pollen Not available.
جودة الهواء Not available.
Flu Activity Not available.
METAR ORMM 281800Z 32006KT CAVOK 31/03 Q1012 NOSIG

More Conditions Fewer Conditions

الضغط 29.89 في
وضوح الرؤية -9999.0 أميال
سحابات
نقطة الندى 37 °F
الرطوبة 17%
Rainfall 0.00 في
عمق الثلج Not available.
الأشعة فوق البنفسجية Not available.
Pollen Not available.
جودة الهواء Not available.
Flu Activity Not available.
METAR ORMM 281800Z 32006KT CAVOK 31/03 Q1012 NOSIG

More Conditions Fewer Conditions

10-Day Weather Forecast

Almanac

علم الفلك

Apr. 28, 2015 Rise Set
Actual Time
Civil Twilight
Nautical Twilight
Astronomical Twilight
قمر
Length Of Visible Light
طول الیوم
Tomorrow will be .
, % of the Moon is Illuminated

Today's Extremes

Country Highs Country Lows

Community

WunderPhotos

Upload Photos

1,817,719 photos uploaded!

WunderBlogs® & News

Nearby

جودة الهواء

  جودة الهواء AQ Index Pollutant
Not available.

عمق الثلج

Station Depth Elevation

Earthquake Activity

City Distance Mag. Time & Date
Minimum magnitude displayed is 2.5.

Coastal Water Temperatures

مكان درجات الحرارة

Stations

Nearby Weather Stations

Station Location الحرارة رياح باردة نقطة الندى الرطوبة ريح Precip. Elev تحديث Type